Terminal Aerodrome Forecast
Issued by NWS

Home | Current Version | Previous Version | Graphics & Text | Print | Product List | Glossary On
Versions: 1 2 3 4 5 6 7 8 9 10 11 12 13 14 15 16 17 18 19 20 21 22 23
215
FTUS43 KIWX 102320
TAFSBN
TAF
KSBN 102320Z 1100/1124 30006KT P6SM OVC020
     FM110700 23003KT P6SM BKN020
     FM111500 19009KT P6SM OVC015=

USA.gov is the U.S. government's official web portal to all federal, state and local government web resources and services.